Time;durP1;ratioP1;P1;durP2;ratioP2;P2;SDS_P1;SDS_P2;PMS_P1;PMS_P2;Temp;Humidity;BMP_temperature;BMP_pressure;BME280_temperature;BME280_humidity;BME280_pressure;Samples;Min_cycle;Max_cycle;Signal;HPM_P1;HPM_P2
2021/06/14 00:01:12;;;;;;;14.90;7.07;;;;;;;;;;4998545;28;20218;-67
2021/06/14 00:03:37;;;;;;;12.93;7.40;;;;;;;;;;4999996;28;20193;-67
2021/06/14 00:06:03;;;;;;;14.38;7.95;;;;;;;;;;4995666;28;20191;-67
2021/06/14 00:08:28;;;;;;;15.85;7.70;;;;;;;;;;5003578;28;20211;-67
2021/06/14 00:10:56;;;;;;;11.13;6.93;;;;;;;;;;5006945;28;20425;-67
2021/06/14 00:13:22;;;;;;;15.38;7.53;;;;;;;;;;5002890;28;20187;-67
2021/06/14 00:15:49;;;;;;;12.40;7.93;;;;;;;;;;4995065;28;20194;-67
2021/06/14 00:18:15;;;;;;;12.18;7.97;;;;;;;;;;5001788;28;20317;-67
2021/06/14 00:20:44;;;;;;;16.10;8.30;;;;;;;;;;4992102;28;20201;-67
2021/06/14 00:23:10;;;;;;;17.55;8.50;;;;;;;;;;5000772;28;20303;-67
2021/06/14 00:25:36;;;;;;;14.40;7.63;;;;;;;;;;4992126;28;20268;-66
2021/06/14 00:28:03;;;;;;;13.57;8.13;;;;;;;;;;4998352;28;20199;-66
2021/06/14 00:30:29;;;;;;;14.32;7.95;;;;;;;;;;4993423;28;20185;-66
2021/06/14 00:32:54;;;;;;;14.15;8.15;;;;;;;;;;4997084;28;20186;-66
2021/06/14 00:35:20;;;;;;;12.77;7.82;;;;;;;;;;4997788;28;20212;-67
2021/06/14 00:37:45;;;;;;;15.55;8.35;;;;;;;;;;4992419;28;20218;-67
2021/06/14 00:40:11;;;;;;;15.43;7.95;;;;;;;;;;4999135;28;20256;-67
2021/06/14 00:42:37;;;;;;;16.10;8.75;;;;;;;;;;4993847;28;20191;-67
2021/06/14 00:45:07;;;;;;;13.38;8.63;;;;;;;;;;4997954;28;20317;-67
2021/06/14 00:47:32;;;;;;;18.55;9.00;;;;;;;;;;4993063;28;20641;-67
2021/06/14 00:49:58;;;;;;;14.82;8.52;;;;;;;;;;4997713;28;20222;-67
2021/06/14 00:52:23;;;;;;;15.95;9.00;;;;;;;;;;4992456;28;20562;-67
2021/06/14 00:54:49;;;;;;;14.40;8.02;;;;;;;;;;4997022;28;20211;-67
2021/06/14 00:57:14;;;;;;;15.85;8.80;;;;;;;;;;4991794;28;20224;-67
2021/06/14 00:59:40;;;;;;;15.40;8.93;;;;;;;;;;4998478;28;20201;-67
2021/06/14 01:02:05;;;;;;;13.32;8.48;;;;;;;;;;4993201;28;20291;-67
2021/06/14 01:04:30;;;;;;;16.85;9.60;;;;;;;;;;4999191;28;20662;-67
2021/06/14 01:06:56;;;;;;;12.13;8.60;;;;;;;;;;5000367;28;20233;-67
2021/06/14 01:09:21;;;;;;;17.20;9.52;;;;;;;;;;4990835;28;20230;-67
2021/06/14 01:11:57;;;;;;;15.07;9.15;;;;;;;;;;4999493;28;20182;-67
2021/06/14 01:14:53;;;;;;;14.10;8.90;;;;;;;;;;4991828;28;20218;-67
2021/06/14 01:17:30;;;;;;;15.98;9.20;;;;;;;;;;4997525;28;20192;-66
2021/06/14 01:20:19;;;;;;;16.55;8.88;;;;;;;;;;4993389;28;20262;-66
2021/06/14 01:22:53;;;;;;;16.45;8.95;;;;;;;;;;4995567;28;20183;-66
2021/06/14 01:25:31;;;;;;;12.80;8.98;;;;;;;;;;4997506;28;20280;-66
2021/06/14 01:27:57;;;;;;;17.23;10.18;;;;;;;;;;5002412;28;20191;-66
2021/06/14 01:30:31;;;;;;;15.88;10.05;;;;;;;;;;4995973;28;20199;-66
2021/06/14 01:32:56;;;;;;;14.88;9.77;;;;;;;;;;5003289;28;20208;-66
2021/06/14 01:35:34;;;;;;;15.20;9.45;;;;;;;;;;4991103;28;20225;-66
2021/06/14 01:38:01;;;;;;;16.13;9.60;;;;;;;;;;5000424;28;20186;-66
2021/06/14 01:40:27;;;;;;;15.75;9.75;;;;;;;;;;4988433;28;20270;-67
2021/06/14 01:42:56;;;;;;;16.30;10.35;;;;;;;;;;5001402;28;20711;-68
2021/06/14 01:45:25;;;;;;;18.90;10.65;;;;;;;;;;4991137;28;20236;-66
2021/06/14 01:47:51;;;;;;;14.80;10.13;;;;;;;;;;4994027;28;20298;-67
2021/06/14 01:50:17;;;;;;;15.35;10.48;;;;;;;;;;4988677;28;20187;-66
2021/06/14 01:52:43;;;;;;;17.52;10.60;;;;;;;;;;4999648;28;20183;-66
2021/06/14 01:55:11;;;;;;;18.73;10.63;;;;;;;;;;4990507;28;20703;-66
2021/06/14 01:57:39;;;;;;;17.23;11.45;;;;;;;;;;4998588;28;20183;-66
2021/06/14 02:00:06;;;;;;;19.35;11.60;;;;;;;;;;5000897;28;20484;-66
2021/06/14 02:02:33;;;;;;;22.85;12.38;;;;;;;;;;5000544;28;20240;-66
2021/06/14 02:04:58;;;;;;;17.42;10.77;;;;;;;;;;4995204;28;20193;-66
2021/06/14 02:07:24;;;;;;;18.15;10.93;;;;;;;;;;4991718;28;20202;-66
2021/06/14 02:09:51;;;;;;;18.95;11.05;;;;;;;;;;4998393;28;20206;-66
2021/06/14 02:12:17;;;;;;;17.25;11.30;;;;;;;;;;4990954;28;21328;-66
2021/06/14 02:14:43;;;;;;;17.70;11.60;;;;;;;;;;4995804;28;20203;-66
2021/06/14 02:17:11;;;;;;;19.73;11.20;;;;;;;;;;4987123;28;20186;-66
2021/06/14 02:19:40;;;;;;;14.25;10.35;;;;;;;;;;4994181;28;20583;-66
2021/06/14 02:22:06;;;;;;;17.35;11.60;;;;;;;;;;4990471;28;20245;-66
2021/06/14 02:24:32;;;;;;;19.55;11.27;;;;;;;;;;4995095;28;20521;-66
2021/06/14 02:26:58;;;;;;;15.98;11.02;;;;;;;;;;4993291;28;20187;-66
2021/06/14 02:29:23;;;;;;;17.80;10.80;;;;;;;;;;4996638;28;20609;-66
2021/06/14 02:31:49;;;;;;;19.23;11.93;;;;;;;;;;4992243;28;20205;-66
2021/06/14 02:34:14;;;;;;;19.48;11.98;;;;;;;;;;4994966;28;20199;-66
2021/06/14 02:36:41;;;;;;;18.00;11.98;;;;;;;;;;4990506;28;20191;-66
2021/06/14 02:39:13;;;;;;;20.17;12.52;;;;;;;;;;4997327;28;20203;-66
2021/06/14 02:41:40;;;;;;;16.95;12.15;;;;;;;;;;4998626;28;20301;-67
2021/06/14 02:44:06;;;;;;;21.30;11.50;;;;;;;;;;4990021;28;20306;-67
2021/06/14 02:46:39;;;;;;;19.52;11.82;;;;;;;;;;4999447;28;20247;-67
2021/06/14 02:49:05;;;;;;;18.10;12.23;;;;;;;;;;4991481;28;20269;-67
2021/06/14 02:51:31;;;;;;;20.98;12.52;;;;;;;;;;4999962;28;20285;-67
2021/06/14 02:54:04;;;;;;;17.77;11.48;;;;;;;;;;4987791;28;20211;-67
2021/06/14 02:56:38;;;;;;;18.13;11.80;;;;;;;;;;5001001;28;20680;-67
2021/06/14 02:59:05;;;;;;;19.00;11.75;;;;;;;;;;4993450;28;20245;-67
2021/06/14 03:01:35;;;;;;;19.40;11.73;;;;;;;;;;4997644;28;20637;-67
2021/06/14 03:04:02;;;;;;;18.70;12.38;;;;;;;;;;4993794;28;20634;-67
2021/06/14 03:06:28;;;;;;;16.83;11.52;;;;;;;;;;4996561;28;20191;-67
2021/06/14 03:08:54;;;;;;;15.98;11.32;;;;;;;;;;4988983;28;20182;-67
2021/06/14 03:11:23;;;;;;;19.98;12.07;;;;;;;;;;4996081;28;20191;-67
2021/06/14 03:13:50;;;;;;;19.60;11.80;;;;;;;;;;4988428;28;20225;-67
2021/06/14 03:16:17;;;;;;;16.77;11.43;;;;;;;;;;5000576;28;20195;-67
2021/06/14 03:18:44;;;;;;;18.85;12.35;;;;;;;;;;4990991;28;20187;-67
2021/06/14 03:21:10;;;;;;;20.80;11.90;;;;;;;;;;5005937;28;20186;-67
2021/06/14 03:23:35;;;;;;;18.30;12.32;;;;;;;;;;5001684;28;20651;-68
2021/06/14 03:26:04;;;;;;;19.23;11.55;;;;;;;;;;4996710;28;20225;-67
2021/06/14 03:28:30;;;;;;;17.33;12.02;;;;;;;;;;5002401;28;20225;-67
2021/06/14 03:30:56;;;;;;;18.65;12.63;;;;;;;;;;4995656;28;20580;-67
2021/06/14 03:33:21;;;;;;;17.63;11.85;;;;;;;;;;4999336;28;20187;-66
2021/06/14 03:35:48;;;;;;;22.05;12.18;;;;;;;;;;4993329;28;20248;-66
2021/06/14 03:38:14;;;;;;;16.95;12.02;;;;;;;;;;4998858;28;20733;-66
2021/06/14 03:40:40;;;;;;;17.75;11.77;;;;;;;;;;4992352;28;20202;-67
2021/06/14 03:43:06;;;;;;;18.45;12.05;;;;;;;;;;5000617;28;20212;-66
2021/06/14 03:45:33;;;;;;;18.48;12.45;;;;;;;;;;4993442;28;20219;-67
2021/06/14 03:47:58;;;;;;;18.85;12.38;;;;;;;;;;4999491;28;20250;-66
2021/06/14 03:50:24;;;;;;;18.40;12.35;;;;;;;;;;4994378;28;20661;-67
2021/06/14 03:52:50;;;;;;;16.95;11.50;;;;;;;;;;5000887;28;20610;-66
2021/06/14 03:55:15;;;;;;;17.13;12.13;;;;;;;;;;4997950;28;20223;-67
2021/06/14 03:57:41;;;;;;;18.55;12.02;;;;;;;;;;4993306;28;20191;-66
2021/06/14 04:00:13;;;;;;;20.27;12.20;;;;;;;;;;4998017;28;20650;-67
2021/06/14 04:02:39;;;;;;;18.25;12.10;;;;;;;;;;4992163;28;20781;-66
2021/06/14 04:05:06;;;;;;;17.80;12.35;;;;;;;;;;5000616;28;20550;-66
2021/06/14 04:07:32;;;;;;;18.13;12.23;;;;;;;;;;4993201;28;20569;-67
2021/06/14 04:10:00;;;;;;;21.02;12.13;;;;;;;;;;4995973;28;20190;-67
2021/06/14 04:12:27;;;;;;;21.60;13.10;;;;;;;;;;4993024;28;20202;-67
2021/06/14 04:14:52;;;;;;;18.95;12.00;;;;;;;;;;4997819;28;20214;-67
2021/06/14 04:17:18;;;;;;;18.65;12.15;;;;;;;;;;4992705;28;20187;-67
2021/06/14 04:19:43;;;;;;;18.83;11.63;;;;;;;;;;5016405;28;20215;-67
2021/06/14 04:22:09;;;;;;;16.83;12.02;;;;;;;;;;4991290;28;20217;-67
2021/06/14 04:24:34;;;;;;;21.90;12.65;;;;;;;;;;5000555;28;20209;-67
2021/06/14 04:27:00;;;;;;;18.02;11.52;;;;;;;;;;5001135;28;20313;-67
2021/06/14 04:29:25;;;;;;;18.42;11.45;;;;;;;;;;4990401;28;21765;-67
2021/06/14 04:31:50;;;;;;;17.13;11.15;;;;;;;;;;5002326;28;20183;-67
2021/06/14 04:34:16;;;;;;;17.20;11.07;;;;;;;;;;4985325;28;20214;-67
2021/06/14 04:36:41;;;;;;;14.30;10.63;;;;;;;;;;4999831;28;20205;-67
2021/06/14 04:39:07;;;;;;;13.50;9.02;;;;;;;;;;4986857;28;20187;-67
2021/06/14 04:41:32;;;;;;;14.38;9.57;;;;;;;;;;5000087;28;20214;-67
2021/06/14 04:43:59;;;;;;;13.63;9.65;;;;;;;;;;4994654;28;20189;-67
2021/06/14 04:46:24;;;;;;;17.60;9.48;;;;;;;;;;5002197;28;20221;-67
2021/06/14 04:48:49;;;;;;;15.10;9.10;;;;;;;;;;4991836;28;20191;-67
2021/06/14 04:51:15;;;;;;;16.10;9.48;;;;;;;;;;4998495;28;20194;-68
2021/06/14 04:53:40;;;;;;;12.57;9.32;;;;;;;;;;4988894;28;20521;-68
2021/06/14 04:56:07;;;;;;;13.73;8.98;;;;;;;;;;5000263;28;20214;-68
2021/06/14 04:58:33;;;;;;;19.73;9.77;;;;;;;;;;5001116;28;20809;-68
2021/06/14 05:00:58;;;;;;;17.27;10.38;;;;;;;;;;4992902;28;20238;-67
2021/06/14 05:03:23;;;;;;;16.45;10.43;;;;;;;;;;5004318;28;20629;-68
2021/06/14 05:05:49;;;;;;;13.68;9.60;;;;;;;;;;4993868;28;20187;-67
2021/06/14 05:08:18;;;;;;;14.25;10.13;;;;;;;;;;5001705;28;20186;-67
2021/06/14 05:10:44;;;;;;;13.18;9.43;;;;;;;;;;4993807;28;20203;-67
2021/06/14 05:13:09;;;;;;;16.77;9.77;;;;;;;;;;4998696;28;20183;-67
2021/06/14 05:15:34;;;;;;;16.52;9.40;;;;;;;;;;4990106;28;20203;-67
2021/06/14 05:18:00;;;;;;;14.25;9.32;;;;;;;;;;4991916;28;20183;-68
2021/06/14 05:20:29;;;;;;;16.13;8.95;;;;;;;;;;4989134;28;20591;-67
2021/06/14 05:22:54;;;;;;;14.38;7.97;;;;;;;;;;4997847;28;20595;-67
2021/06/14 05:25:20;;;;;;;13.32;8.68;;;;;;;;;;4988227;28;20270;-67
2021/06/14 05:27:45;;;;;;;12.77;8.68;;;;;;;;;;4995725;28;20248;-67
2021/06/14 05:30:11;;;;;;;15.20;7.85;;;;;;;;;;4999536;28;20219;-67
2021/06/14 05:32:38;;;;;;;16.02;8.60;;;;;;;;;;4989394;28;20222;-67
2021/06/14 05:35:04;;;;;;;13.95;8.38;;;;;;;;;;4999970;28;20311;-67
2021/06/14 05:37:29;;;;;;;16.90;7.57;;;;;;;;;;4992001;28;20330;-67
2021/06/14 05:39:55;;;;;;;14.65;7.35;;;;;;;;;;4996308;28;20718;-67
2021/06/14 05:42:20;;;;;;;16.60;7.40;;;;;;;;;;4988738;28;20279;-67
2021/06/14 05:44:45;;;;;;;10.85;6.60;;;;;;;;;;4997248;28;20266;-67
2021/06/14 05:47:11;;;;;;;13.75;6.95;;;;;;;;;;4987569;28;20712;-67
2021/06/14 05:49:36;;;;;;;12.23;7.18;;;;;;;;;;4997692;28;20700;-67
2021/06/14 05:52:02;;;;;;;12.07;7.07;;;;;;;;;;4991310;28;20186;-67
2021/06/14 05:54:27;;;;;;;14.63;7.78;;;;;;;;;;4998134;28;20207;-67
2021/06/14 05:56:52;;;;;;;14.77;7.72;;;;;;;;;;4993196;28;20191;-67
2021/06/14 05:59:18;;;;;;;12.73;7.75;;;;;;;;;;4997682;28;20237;-67
2021/06/14 06:01:43;;;;;;;12.38;7.38;;;;;;;;;;5000403;28;20198;-67
2021/06/14 06:04:09;;;;;;;12.40;6.80;;;;;;;;;;4988465;28;20589;-66
2021/06/14 06:06:34;;;;;;;12.75;7.40;;;;;;;;;;4999541;28;20187;-67
2021/06/14 06:08:59;;;;;;;15.60;7.10;;;;;;;;;;4985544;28;20193;-67
2021/06/14 06:11:25;;;;;;;13.48;6.50;;;;;;;;;;4998177;28;20270;-67
2021/06/14 06:13:50;;;;;;;14.93;5.43;;;;;;;;;;4994034;28;20241;-67
2021/06/14 06:16:16;;;;;;;9.65;5.07;;;;;;;;;;5007127;28;20225;-67
2021/06/14 06:18:42;;;;;;;11.18;5.30;;;;;;;;;;4988064;28;20183;-67
2021/06/14 06:21:07;;;;;;;9.77;5.20;;;;;;;;;;5003682;28;20194;-67
2021/06/14 06:23:32;;;;;;;10.60;5.30;;;;;;;;;;4986784;28;25486;-66
2021/06/14 06:25:57;;;;;;;10.23;4.97;;;;;;;;;;5000065;28;20600;-66
2021/06/14 06:28:23;;;;;;;8.60;5.00;;;;;;;;;;4995276;28;20693;-67
2021/06/14 06:30:49;;;;;;;10.70;4.72;;;;;;;;;;4993461;28;20290;-67
2021/06/14 06:33:14;;;;;;;11.82;5.55;;;;;;;;;;4993833;28;20198;-67
2021/06/14 06:35:39;;;;;;;10.20;5.68;;;;;;;;;;4991660;28;20210;-67
2021/06/14 06:38:05;;;;;;;11.48;5.72;;;;;;;;;;4990832;28;20571;-68
2021/06/14 06:40:30;;;;;;;12.52;6.00;;;;;;;;;;4992571;28;20249;-67
2021/06/14 06:42:57;;;;;;;13.20;6.40;;;;;;;;;;4993245;28;20190;-67
2021/06/14 06:45:26;;;;;;;15.80;6.60;;;;;;;;;;4986876;28;20681;-67
2021/06/14 06:47:52;;;;;;;11.70;6.07;;;;;;;;;;4995792;28;20183;-67
2021/06/14 06:50:19;;;;;;;12.45;6.68;;;;;;;;;;4991085;28;20198;-66
2021/06/14 06:52:44;;;;;;;15.27;6.38;;;;;;;;;;4992953;28;20274;-67
2021/06/14 06:55:12;;;;;;;12.77;6.55;;;;;;;;;;4989170;28;20202;-68
2021/06/14 06:57:38;;;;;;;11.02;6.53;;;;;;;;;;4996530;28;20606;-67
2021/06/14 07:00:06;;;;;;;14.38;6.72;;;;;;;;;;4990191;28;20264;-67
2021/06/14 07:02:32;;;;;;;12.07;6.07;;;;;;;;;;4997731;28;20286;-66
2021/06/14 07:04:57;;;;;;;13.43;6.95;;;;;;;;;;4998819;28;20197;-67
2021/06/14 07:07:23;;;;;;;12.35;6.30;;;;;;;;;;4984411;28;20196;-67
2021/06/14 07:09:48;;;;;;;14.10;7.00;;;;;;;;;;4998185;28;20244;-66
2021/06/14 07:12:14;;;;;;;11.20;6.57;;;;;;;;;;4987930;28;20198;-66
2021/06/14 07:14:40;;;;;;;13.73;6.45;;;;;;;;;;4997826;28;20647;-69
2021/06/14 07:17:05;;;;;;;9.95;6.50;;;;;;;;;;4990500;28;20195;-66
2021/06/14 07:19:31;;;;;;;14.30;6.25;;;;;;;;;;5000812;28;20213;-65
2021/06/14 07:21:56;;;;;;;14.88;6.50;;;;;;;;;;4990111;28;21040;-66
2021/06/14 07:24:21;;;;;;;12.40;6.47;;;;;;;;;;4997507;28;20184;-68
2021/06/14 07:26:47;;;;;;;12.23;5.82;;;;;;;;;;4990192;28;20287;-67
2021/06/14 07:29:12;;;;;;;13.57;6.45;;;;;;;;;;4994516;28;20191;-67
2021/06/14 07:31:38;;;;;;;16.10;6.28;;;;;;;;;;4990130;28;20218;-68
2021/06/14 07:34:05;;;;;;;16.35;6.53;;;;;;;;;;5000330;28;20407;-66
2021/06/14 07:36:31;;;;;;;13.98;6.30;;;;;;;;;;4997447;28;20183;-67
2021/06/14 07:38:56;;;;;;;10.43;5.93;;;;;;;;;;4988522;28;20199;-67
2021/06/14 07:41:23;;;;;;;12.52;5.95;;;;;;;;;;4996117;28;20263;-66
2021/06/14 07:43:49;;;;;;;13.75;6.10;;;;;;;;;;4986920;28;20195;-66
2021/06/14 07:46:15;;;;;;;10.77;5.78;;;;;;;;;;4998136;28;20666;-67
2021/06/14 07:48:41;;;;;;;10.93;6.20;;;;;;;;;;4986464;28;20294;-67
2021/06/14 07:51:07;;;;;;;11.07;5.80;;;;;;;;;;4991508;28;20279;-67
2021/06/14 07:53:33;;;;;;;11.63;5.53;;;;;;;;;;5006266;28;20318;-68
2021/06/14 07:55:59;;;;;;;10.55;4.93;;;;;;;;;;4996968;28;20326;-68
2021/06/14 07:58:25;;;;;;;12.90;5.03;;;;;;;;;;4987607;28;20183;-67
2021/06/14 08:00:51;;;;;;;10.35;4.65;;;;;;;;;;5001055;28;20211;-70
2021/06/14 08:03:16;;;;;;;13.98;5.43;;;;;;;;;;4988395;28;20195;-66
2021/06/14 08:05:44;;;;;;;9.45;4.43;;;;;;;;;;5002588;28;20257;-67
2021/06/14 08:08:09;;;;;;;12.88;5.32;;;;;;;;;;4996026;28;20187;-67
2021/06/14 08:10:35;;;;;;;7.45;4.40;;;;;;;;;;4995807;28;20270;-66
2021/06/14 08:13:02;;;;;;;10.95;4.72;;;;;;;;;;4998957;28;20639;-69
2021/06/14 08:15:29;;;;;;;9.95;5.32;;;;;;;;;;4992016;28;20827;-66
2021/06/14 08:21:02;;;;;;;11.13;4.63;;;;;;;;;;5008648;28;20226;-68
2021/06/14 08:26:12;;;;;;;11.40;4.53;;;;;;;;;;4991660;28;20577;-68
2021/06/14 08:28:37;;;;;;;10.98;4.80;;;;;;;;;;4999664;28;20187;-68
2021/06/14 08:31:04;;;;;;;8.35;4.40;;;;;;;;;;4992266;28;20192;-67
2021/06/14 08:33:30;;;;;;;7.68;4.65;;;;;;;;;;5002788;28;20202;-68
2021/06/14 08:35:56;;;;;;;11.40;4.25;;;;;;;;;;4991929;28;20211;-67
2021/06/14 08:38:21;;;;;;;15.48;4.70;;;;;;;;;;5000339;28;20584;-68
2021/06/14 08:40:46;;;;;;;8.10;4.68;;;;;;;;;;4992561;28;20240;-68
2021/06/14 08:43:12;;;;;;;9.05;4.43;;;;;;;;;;4999014;28;20660;-69
2021/06/14 08:45:39;;;;;;;9.15;4.50;;;;;;;;;;4994686;28;20222;-67
2021/06/14 08:48:07;;;;;;;10.43;4.72;;;;;;;;;;5003493;28;20205;-67
2021/06/14 08:50:33;;;;;;;9.18;4.57;;;;;;;;;;4995498;28;20580;-68
2021/06/14 08:52:58;;;;;;;14.00;5.40;;;;;;;;;;4990289;28;20245;-69
2021/06/14 08:55:24;;;;;;;12.40;5.50;;;;;;;;;;5002819;28;20310;-68
2021/06/14 08:57:51;;;;;;;11.30;5.43;;;;;;;;;;4993298;28;20553;-69
2021/06/14 09:00:20;;;;;;;12.13;5.53;;;;;;;;;;5000459;28;20191;-66
2021/06/14 09:02:47;;;;;;;14.38;5.55;;;;;;;;;;4994776;28;20554;-69
2021/06/14 09:05:16;;;;;;;11.95;5.25;;;;;;;;;;5003104;28;20678;-69
2021/06/14 09:07:41;;;;;;;12.20;5.30;;;;;;;;;;4994838;28;20293;-68
2021/06/14 09:10:08;;;;;;;10.57;5.55;;;;;;;;;;5000720;28;20285;-67
2021/06/14 09:12:40;;;;;;;11.43;6.20;;;;;;;;;;4994120;28;20201;-69
2021/06/14 09:15:09;;;;;;;15.45;5.70;;;;;;;;;;4998579;28;20214;-67
2021/06/14 09:17:35;;;;;;;13.95;5.45;;;;;;;;;;4987171;28;20244;-69
2021/06/14 09:20:00;;;;;;;12.88;5.13;;;;;;;;;;5000626;28;20631;-69
2021/06/14 09:22:27;;;;;;;9.75;4.68;;;;;;;;;;4989503;28;20202;-68
2021/06/14 09:25:04;;;;;;;10.20;5.20;;;;;;;;;;4999401;28;20190;-68
2021/06/14 09:27:47;;;;;;;12.20;5.57;;;;;;;;;;4991715;28;20194;-66
2021/06/14 09:30:25;;;;;;;10.60;5.18;;;;;;;;;;5003668;28;20171;-68
2021/06/14 09:33:01;;;;;;;10.05;5.30;;;;;;;;;;4988031;28;20190;-66
2021/06/14 09:35:32;;;;;;;9.65;4.53;;;;;;;;;;4999684;28;20336;-66
2021/06/14 09:38:08;;;;;;;12.25;4.70;;;;;;;;;;4992365;28;20229;-68
2021/06/14 09:40:38;;;;;;;12.77;4.82;;;;;;;;;;4999594;28;20253;-69
2021/06/14 09:43:07;;;;;;;11.35;5.50;;;;;;;;;;5003288;28;20666;-68
2021/06/14 09:45:33;;;;;;;12.07;5.20;;;;;;;;;;4988632;28;20237;-66
2021/06/14 09:47:58;;;;;;;10.32;4.63;;;;;;;;;;4996010;28;20271;-69
2021/06/14 09:50:31;;;;;;;10.65;4.78;;;;;;;;;;4990164;28;20278;-69
2021/06/14 09:53:11;;;;;;;15.20;5.60;;;;;;;;;;4997707;28;20277;-67
2021/06/14 09:55:38;;;;;;;9.48;4.53;;;;;;;;;;4991792;28;20245;-68
2021/06/14 09:58:19;;;;;;;9.98;4.72;;;;;;;;;;4998407;28;20195;-69
2021/06/14 10:00:50;;;;;;;12.95;5.18;;;;;;;;;;4989280;28;20682;-70
2021/06/14 10:03:16;;;;;;;11.85;4.95;;;;;;;;;;4998330;28;20197;-69
2021/06/14 10:05:46;;;;;;;12.75;4.88;;;;;;;;;;4993670;28;20226;-69
2021/06/14 10:08:12;;;;;;;10.23;5.35;;;;;;;;;;5000556;28;20251;-71
2021/06/14 10:10:39;;;;;;;11.90;5.22;;;;;;;;;;4991723;28;20266;-68
2021/06/14 10:13:05;;;;;;;9.80;4.72;;;;;;;;;;4999142;28;20191;-69
2021/06/14 10:15:37;;;;;;;12.00;4.95;;;;;;;;;;4988266;28;20222;-72
2021/06/14 10:18:04;;;;;;;12.02;5.95;;;;;;;;;;4997981;28;20285;-72
2021/06/14 10:20:31;;;;;;;11.55;5.20;;;;;;;;;;4986987;28;20201;-68
2021/06/14 10:22:58;;;;;;;10.52;4.85;;;;;;;;;;5002414;28;20194;-68
2021/06/14 10:25:25;;;;;;;8.15;4.20;;;;;;;;;;4993326;28;20416;-69
2021/06/14 10:27:51;;;;;;;10.45;4.50;;;;;;;;;;4991706;28;20266;-67
2021/06/14 10:30:20;;;;;;;8.82;4.10;;;;;;;;;;4997464;28;21107;-67
2021/06/14 10:32:46;;;;;;;9.23;4.13;;;;;;;;;;4987060;28;20195;-70
2021/06/14 10:35:13;;;;;;;8.90;4.50;;;;;;;;;;5001365;28;20215;-71
2021/06/14 10:37:43;;;;;;;8.82;4.88;;;;;;;;;;4987261;28;20187;-68
2021/06/14 10:40:11;;;;;;;9.02;4.15;;;;;;;;;;4999881;28;20171;-68
2021/06/14 10:42:38;;;;;;;10.48;4.30;;;;;;;;;;4988298;28;20190;-68
2021/06/14 10:45:04;;;;;;;9.38;4.35;;;;;;;;;;4996146;28;20182;-68
2021/06/14 10:47:30;;;;;;;9.30;4.20;;;;;;;;;;4990180;28;20304;-70
2021/06/14 10:49:56;;;;;;;11.38;4.75;;;;;;;;;;4999966;28;20265;-68
2021/06/14 10:52:22;;;;;;;7.63;3.70;;;;;;;;;;4989101;28;20194;-67
2021/06/14 10:54:48;;;;;;;7.78;3.58;;;;;;;;;;4998178;28;20202;-69
2021/06/14 10:57:14;;;;;;;11.07;3.55;;;;;;;;;;5006375;28;20186;-72
2021/06/14 10:59:41;;;;;;;7.88;3.70;;;;;;;;;;4995613;28;20270;-70
2021/06/14 11:02:09;;;;;;;8.52;3.90;;;;;;;;;;4998842;28;20307;-68
2021/06/14 11:04:35;;;;;;;10.10;4.78;;;;;;;;;;4996296;28;20877;-68
2021/06/14 11:07:01;;;;;;;12.75;4.65;;;;;;;;;;4997824;28;20718;-68
2021/06/14 11:09:47;;;;;;;8.00;4.20;;;;;;;;;;4988012;28;20285;-69
2021/06/14 11:12:25;;;;;;;8.07;4.18;;;;;;;;;;4995187;28;20725;-69
2021/06/14 11:14:50;;;;;;;8.70;3.97;;;;;;;;;;4988717;28;20446;-70
2021/06/14 11:17:23;;;;;;;7.43;4.20;;;;;;;;;;4997752;28;20274;-68
2021/06/14 11:20:09;;;;;;;7.90;4.00;;;;;;;;;;5004450;28;20184;-68
2021/06/14 11:22:37;;;;;;;9.40;3.90;;;;;;;;;;4996772;28;20195;-68
2021/06/14 11:25:30;;;;;;;9.63;4.53;;;;;;;;;;4990947;28;20647;-68
2021/06/14 11:27:57;;;;;;;11.07;4.65;;;;;;;;;;4999858;28;20673;-70
2021/06/14 11:30:26;;;;;;;11.98;4.57;;;;;;;;;;4990189;28;20182;-68
2021/06/14 11:32:52;;;;;;;7.32;4.22;;;;;;;;;;4999469;28;20190;-70
2021/06/14 11:35:18;;;;;;;9.55;4.07;;;;;;;;;;4988629;28;20543;-68
2021/06/14 11:37:47;;;;;;;8.27;4.22;;;;;;;;;;5000168;28;20206;-68
2021/06/14 11:40:15;;;;;;;10.10;4.25;;;;;;;;;;4987693;28;20590;-68
2021/06/14 11:42:54;;;;;;;7.88;4.10;;;;;;;;;;4997881;28;20187;-69
2021/06/14 11:45:29;;;;;;;6.88;4.40;;;;;;;;;;4993519;28;20189;-70
2021/06/14 11:47:56;;;;;;;9.70;3.50;;;;;;;;;;4997591;28;20186;-68
2021/06/14 11:50:24;;;;;;;8.32;4.65;;;;;;;;;;4991636;28;20643;-68
2021/06/14 11:52:58;;;;;;;10.18;4.25;;;;;;;;;;5007164;28;20187;-68
2021/06/14 11:55:27;;;;;;;7.78;3.60;;;;;;;;;;4988178;28;20648;-68
2021/06/14 11:57:57;;;;;;;8.77;3.83;;;;;;;;;;4997480;28;20250;-68
2021/06/14 12:00:27;;;;;;;6.53;4.13;;;;;;;;;;4992183;28;20215;-69
2021/06/14 12:02:53;;;;;;;8.55;4.18;;;;;;;;;;5002209;28;20180;-69
2021/06/14 12:05:31;;;;;;;8.18;4.55;;;;;;;;;;4994196;28;20542;-68
2021/06/14 12:07:57;;;;;;;8.45;4.70;;;;;;;;;;5000706;28;20647;-69
2021/06/14 12:10:23;;;;;;;8.73;4.30;;;;;;;;;;5004592;28;20214;-68
2021/06/14 12:13:01;;;;;;;8.98;4.93;;;;;;;;;;5000576;28;20630;-68
2021/06/14 12:15:26;;;;;;;12.30;4.40;;;;;;;;;;5006933;28;20256;-70
2021/06/14 12:17:52;;;;;;;6.13;3.88;;;;;;;;;;4997684;28;20237;-68
2021/06/14 12:20:22;;;;;;;12.32;4.35;;;;;;;;;;5004246;28;20218;-67
2021/06/14 12:22:47;;;;;;;8.57;3.92;;;;;;;;;;4997800;28;20756;-68
2021/06/14 12:25:13;;;;;;;8.65;3.75;;;;;;;;;;5007641;28;20278;-67
2021/06/14 12:27:39;;;;;;;6.63;3.50;;;;;;;;;;4995014;28;20699;-68
2021/06/14 12:30:11;;;;;;;6.63;3.60;;;;;;;;;;4996293;28;20638;-68
2021/06/14 12:32:37;;;;;;;7.50;4.20;;;;;;;;;;4996374;28;20624;-69
2021/06/14 12:35:06;;;;;;;6.22;3.80;;;;;;;;;;4999349;28;20237;-67
2021/06/14 12:37:31;;;;;;;5.38;3.42;;;;;;;;;;4996101;28;20213;-68
2021/06/14 12:40:19;;;;;;;6.68;3.35;;;;;;;;;;4997452;28;20454;-68
2021/06/14 12:42:52;;;;;;;8.45;3.80;;;;;;;;;;4992822;28;20186;-68
2021/06/14 12:45:18;;;;;;;6.68;3.70;;;;;;;;;;4997600;28;20226;-66
2021/06/14 12:47:48;;;;;;;6.38;3.63;;;;;;;;;;4997307;28;20214;-68
2021/06/14 12:50:20;;;;;;;4.78;3.42;;;;;;;;;;4999957;28;20658;-67
2021/06/14 12:52:45;;;;;;;6.35;3.83;;;;;;;;;;4995526;28;20635;-67
2021/06/14 12:55:19;;;;;;;8.18;3.70;;;;;;;;;;4998045;28;20269;-67
2021/06/14 12:57:45;;;;;;;8.50;3.58;;;;;;;;;;4994541;28;20184;-68
2021/06/14 13:00:16;;;;;;;7.47;3.55;;;;;;;;;;4999613;28;20241;-69
2021/06/14 13:02:42;;;;;;;7.93;3.83;;;;;;;;;;5003503;28;20183;-70
2021/06/14 13:05:13;;;;;;;6.68;4.07;;;;;;;;;;4989512;28;20629;-70
2021/06/14 13:07:38;;;;;;;8.05;4.22;;;;;;;;;;5001131;28;20190;-68
2021/06/14 13:10:15;;;;;;;9.10;3.72;;;;;;;;;;4992060;28;20194;-69
2021/06/14 13:12:41;;;;;;;10.00;4.60;;;;;;;;;;4998857;28;20198;-67
2021/06/14 13:15:14;;;;;;;7.32;4.10;;;;;;;;;;4994170;28;20211;-68
2021/06/14 13:17:43;;;;;;;10.52;3.88;;;;;;;;;;4996140;28;20171;-70
2021/06/14 13:20:09;;;;;;;11.05;3.80;;;;;;;;;;4995142;28;20344;-71
2021/06/14 13:22:36;;;;;;;11.45;4.43;;;;;;;;;;5001141;28;20179;-69
2021/06/14 13:25:08;;;;;;;6.55;4.13;;;;;;;;;;4990315;28;20664;-70
2021/06/14 13:27:35;;;;;;;5.50;3.72;;;;;;;;;;5003570;28;20178;-68
2021/06/14 13:30:03;;;;;;;8.88;4.38;;;;;;;;;;4995699;28;20545;-68
2021/06/14 13:32:46;;;;;;;6.30;3.85;;;;;;;;;;4997913;28;20191;-68
2021/06/14 13:35:12;;;;;;;7.72;4.03;;;;;;;;;;4991006;28;20215;-68
2021/06/14 13:37:46;;;;;;;9.77;4.13;;;;;;;;;;4999100;28;20516;-68
2021/06/14 13:40:14;;;;;;;9.38;3.65;;;;;;;;;;4989976;28;20318;-69
2021/06/14 13:42:44;;;;;;;9.07;3.72;;;;;;;;;;4999235;28;20274;-70
2021/06/14 13:45:10;;;;;;;9.00;4.22;;;;;;;;;;5000163;28;20650;-68
2021/06/14 13:47:36;;;;;;;8.25;3.53;;;;;;;;;;4988929;28;20219;-67
2021/06/14 13:50:08;;;;;;;8.52;3.53;;;;;;;;;;4997314;28;20708;-70
2021/06/14 13:52:33;;;;;;;8.13;4.05;;;;;;;;;;4993524;28;20240;-67
2021/06/14 13:55:01;;;;;;;7.97;4.28;;;;;;;;;;4997107;28;20496;-68
2021/06/14 13:57:26;;;;;;;7.72;4.03;;;;;;;;;;4990985;28;20277;-68
2021/06/14 14:00:13;;;;;;;10.50;4.18;;;;;;;;;;4997087;28;20321;-70
2021/06/14 14:02:47;;;;;;;8.48;4.35;;;;;;;;;;4988199;28;20221;-69
2021/06/14 14:05:33;;;;;;;8.18;4.07;;;;;;;;;;4998915;28;20241;-69
2021/06/14 14:08:00;;;;;;;8.18;3.85;;;;;;;;;;4992617;28;20755;-70
2021/06/14 14:10:26;;;;;;;11.63;4.32;;;;;;;;;;5000215;28;20229;-69
2021/06/14 14:12:52;;;;;;;7.20;3.90;;;;;;;;;;4991116;28;20199;-69
2021/06/14 14:15:18;;;;;;;10.95;4.65;;;;;;;;;;4996913;28;20269;-69
2021/06/14 14:17:43;;;;;;;9.27;4.25;;;;;;;;;;4992829;28;20268;-69
2021/06/14 14:20:10;;;;;;;8.00;3.67;;;;;;;;;;4996640;28;20207;-68
2021/06/14 14:22:37;;;;;;;10.25;4.00;;;;;;;;;;4991313;28;20202;-69
2021/06/14 14:25:04;;;;;;;6.78;3.83;;;;;;;;;;5000063;28;20190;-69
2021/06/14 14:27:29;;;;;;;11.77;4.28;;;;;;;;;;4992522;28;20553;-68
2021/06/14 14:29:56;;;;;;;9.63;4.13;;;;;;;;;;4995159;28;20199;-67
2021/06/14 14:32:22;;;;;;;8.07;4.30;;;;;;;;;;4995309;28;20266;-68
2021/06/14 14:34:49;;;;;;;8.32;4.38;;;;;;;;;;4992326;28;20305;-68
2021/06/14 14:37:24;;;;;;;9.85;4.43;;;;;;;;;;4996215;28;20525;-69
2021/06/14 14:40:02;;;;;;;12.23;4.18;;;;;;;;;;4990857;28;20650;-69